sensor_id;sensor_type;location;lat;lon;timestamp;temperature;humidity
12967;DHT22;6548;49.996;8.238;2023-02-15T00:01:36;1.10;99.90
12967;DHT22;6548;49.996;8.238;2023-02-15T00:04:04;1.10;99.90
12967;DHT22;6548;49.996;8.238;2023-02-15T00:06:30;1.10;99.90
12967;DHT22;6548;49.996;8.238;2023-02-15T00:08:56;1.10;99.90
12967;DHT22;6548;49.996;8.238;2023-02-15T00:11:22;1.10;99.90
12967;DHT22;6548;49.996;8.238;2023-02-15T00:14:12;1.20;99.90
12967;DHT22;6548;49.996;8.238;2023-02-15T00:16:39;1.20;99.90
12967;DHT22;6548;49.996;8.238;2023-02-15T00:19:05;1.40;99.90
12967;DHT22;6548;49.996;8.238;2023-02-15T00:21:32;1.50;99.90
12967;DHT22;6548;49.996;8.238;2023-02-15T00:23:59;1.60;99.90
12967;DHT22;6548;49.996;8.238;2023-02-15T00:26:25;1.70;99.90
12967;DHT22;6548;49.996;8.238;2023-02-15T00:28:51;2.00;99.90
12967;DHT22;6548;49.996;8.238;2023-02-15T00:31:18;2.00;99.90
12967;DHT22;6548;49.996;8.238;2023-02-15T00:33:43;1.90;99.90
12967;DHT22;6548;49.996;8.238;2023-02-15T00:36:10;1.60;99.90
12967;DHT22;6548;49.996;8.238;2023-02-15T00:38:36;1.50;99.90
12967;DHT22;6548;49.996;8.238;2023-02-15T00:41:03;1.70;99.90
12967;DHT22;6548;49.996;8.238;2023-02-15T00:43:30;1.90;99.90
12967;DHT22;6548;49.996;8.238;2023-02-15T00:45:56;1.90;99.90
12967;DHT22;6548;49.996;8.238;2023-02-15T00:48:22;2.00;99.90
12967;DHT22;6548;49.996;8.238;2023-02-15T00:50:53;2.20;99.90
12967;DHT22;6548;49.996;8.238;2023-02-15T00:53:19;2.20;99.90
12967;DHT22;6548;49.996;8.238;2023-02-15T00:55:45;2.20;99.90
12967;DHT22;6548;49.996;8.238;2023-02-15T00:58:11;2.20;99.90
12967;DHT22;6548;49.996;8.238;2023-02-15T01:00:37;2.10;99.90
12967;DHT22;6548;49.996;8.238;2023-02-15T01:03:04;2.20;99.90
12967;DHT22;6548;49.996;8.238;2023-02-15T01:05:29;2.10;99.90
12967;DHT22;6548;49.996;8.238;2023-02-15T01:07:56;3.00;99.90
12967;DHT22;6548;49.996;8.238;2023-02-15T01:10:21;2.10;99.90
12967;DHT22;6548;49.996;8.238;2023-02-15T01:12:47;1.50;99.90
12967;DHT22;6548;49.996;8.238;2023-02-15T01:15:13;1.40;99.90
12967;DHT22;6548;49.996;8.238;2023-02-15T01:17:39;1.50;99.90
12967;DHT22;6548;49.996;8.238;2023-02-15T01:20:05;1.70;99.90
12967;DHT22;6548;49.996;8.238;2023-02-15T01:22:31;1.70;99.90
12967;DHT22;6548;49.996;8.238;2023-02-15T01:24:56;2.00;99.90
12967;DHT22;6548;49.996;8.238;2023-02-15T01:27:22;1.70;99.90
12967;DHT22;6548;49.996;8.238;2023-02-15T01:29:47;1.60;99.90
12967;DHT22;6548;49.996;8.238;2023-02-15T01:32:13;1.70;99.90
12967;DHT22;6548;49.996;8.238;2023-02-15T01:34:39;1.70;99.90
12967;DHT22;6548;49.996;8.238;2023-02-15T01:37:04;1.50;99.90
12967;DHT22;6548;49.996;8.238;2023-02-15T01:39:30;2.30;99.90
12967;DHT22;6548;49.996;8.238;2023-02-15T01:41:55;1.20;99.90
12967;DHT22;6548;49.996;8.238;2023-02-15T01:44:45;1.30;99.90
12967;DHT22;6548;49.996;8.238;2023-02-15T01:47:14;1.30;99.90
12967;DHT22;6548;49.996;8.238;2023-02-15T01:49:42;1.40;99.90
12967;DHT22;6548;49.996;8.238;2023-02-15T01:52:10;1.40;99.90
12967;DHT22;6548;49.996;8.238;2023-02-15T01:54:38;1.30;99.90
12967;DHT22;6548;49.996;8.238;2023-02-15T01:57:09;1.30;99.90
12967;DHT22;6548;49.996;8.238;2023-02-15T01:59:37;1.40;99.90
12967;DHT22;6548;49.996;8.238;2023-02-15T02:02:05;1.30;99.90
12967;DHT22;6548;49.996;8.238;2023-02-15T02:04:41;1.30;99.90
12967;DHT22;6548;49.996;8.238;2023-02-15T02:07:09;1.20;99.90
12967;DHT22;6548;49.996;8.238;2023-02-15T02:09:37;1.20;99.90
12967;DHT22;6548;49.996;8.238;2023-02-15T02:12:03;1.50;99.90
12967;DHT22;6548;49.996;8.238;2023-02-15T02:14:29;1.60;99.90
12967;DHT22;6548;49.996;8.238;2023-02-15T02:20:20;1.90;99.90
12967;DHT22;6548;49.996;8.238;2023-02-15T02:23:23;1.70;99.90
12967;DHT22;6548;49.996;8.238;2023-02-15T02:34:04;1.30;99.90
12967;DHT22;6548;49.996;8.238;2023-02-15T02:39:30;1.20;99.90
12967;DHT22;6548;49.996;8.238;2023-02-15T02:42:06;1.20;99.90
12967;DHT22;6548;49.996;8.238;2023-02-15T02:44:51;1.40;99.90
12967;DHT22;6548;49.996;8.238;2023-02-15T02:47:34;1.20;99.90
12967;DHT22;6548;49.996;8.238;2023-02-15T02:50:04;1.20;99.90
12967;DHT22;6548;49.996;8.238;2023-02-15T02:52:35;2.30;99.90
12967;DHT22;6548;49.996;8.238;2023-02-15T02:55:03;1.00;99.90
12967;DHT22;6548;49.996;8.238;2023-02-15T02:57:31;1.00;99.90
12967;DHT22;6548;49.996;8.238;2023-02-15T02:59:59;1.10;99.90
12967;DHT22;6548;49.996;8.238;2023-02-15T03:02:32;1.20;99.90
12967;DHT22;6548;49.996;8.238;2023-02-15T03:05:01;1.20;99.90
12967;DHT22;6548;49.996;8.238;2023-02-15T03:07:30;1.30;99.90
12967;DHT22;6548;49.996;8.238;2023-02-15T03:10:02;1.30;99.90
12967;DHT22;6548;49.996;8.238;2023-02-15T03:12:32;1.50;99.90
12967;DHT22;6548;49.996;8.238;2023-02-15T03:15:10;1.60;99.90
12967;DHT22;6548;49.996;8.238;2023-02-15T03:17:43;1.70;99.90
12967;DHT22;6548;49.996;8.238;2023-02-15T03:20:14;1.30;99.90
12967;DHT22;6548;49.996;8.238;2023-02-15T03:22:46;1.20;99.90
12967;DHT22;6548;49.996;8.238;2023-02-15T03:25:19;1.00;99.90
12967;DHT22;6548;49.996;8.238;2023-02-15T03:27:50;1.00;99.90
12967;DHT22;6548;49.996;8.238;2023-02-15T03:30:18;1.00;99.90
12967;DHT22;6548;49.996;8.238;2023-02-15T03:32:47;1.00;99.90
12967;DHT22;6548;49.996;8.238;2023-02-15T03:35:14;1.10;99.90
12967;DHT22;6548;49.996;8.238;2023-02-15T03:37:57;1.00;99.90
12967;DHT22;6548;49.996;8.238;2023-02-15T03:40:57;1.00;99.90
12967;DHT22;6548;49.996;8.238;2023-02-15T03:44:15;1.10;99.90
12967;DHT22;6548;49.996;8.238;2023-02-15T03:47:08;1.00;99.90
12967;DHT22;6548;49.996;8.238;2023-02-15T03:49:44;1.10;99.90
12967;DHT22;6548;49.996;8.238;2023-02-15T03:52:14;1.20;99.90
12967;DHT22;6548;49.996;8.238;2023-02-15T03:54:40;1.20;99.90
12967;DHT22;6548;49.996;8.238;2023-02-15T03:57:16;1.30;99.90
12967;DHT22;6548;49.996;8.238;2023-02-15T04:00:06;1.40;99.90
12967;DHT22;6548;49.996;8.238;2023-02-15T04:05:31;1.20;99.90
12967;DHT22;6548;49.996;8.238;2023-02-15T04:07:57;1.30;99.90
12967;DHT22;6548;49.996;8.238;2023-02-15T04:10:22;1.10;99.90
12967;DHT22;6548;49.996;8.238;2023-02-15T04:13:06;1.00;99.90
12967;DHT22;6548;49.996;8.238;2023-02-15T04:15:32;1.00;99.90
12967;DHT22;6548;49.996;8.238;2023-02-15T04:18:16;1.00;99.90
12967;DHT22;6548;49.996;8.238;2023-02-15T04:20:45;1.00;99.90
12967;DHT22;6548;49.996;8.238;2023-02-15T04:23:30;1.00;99.90
12967;DHT22;6548;49.996;8.238;2023-02-15T04:26:14;1.00;99.90
12967;DHT22;6548;49.996;8.238;2023-02-15T04:28:40;1.20;99.90
12967;DHT22;6548;49.996;8.238;2023-02-15T04:31:05;1.20;99.90
12967;DHT22;6548;49.996;8.238;2023-02-15T04:33:31;1.20;99.90
12967;DHT22;6548;49.996;8.238;2023-02-15T04:35:56;1.10;99.90
12967;DHT22;6548;49.996;8.238;2023-02-15T04:38:22;1.00;99.90
12967;DHT22;6548;49.996;8.238;2023-02-15T04:40:55;0.90;99.90
12967;DHT22;6548;49.996;8.238;2023-02-15T04:43:20;0.90;99.90
12967;DHT22;6548;49.996;8.238;2023-02-15T04:45:50;1.00;99.90
12967;DHT22;6548;49.996;8.238;2023-02-15T04:48:16;1.00;99.90
12967;DHT22;6548;49.996;8.238;2023-02-15T04:50:42;1.00;99.90
12967;DHT22;6548;49.996;8.238;2023-02-15T04:53:08;0.90;99.90
12967;DHT22;6548;49.996;8.238;2023-02-15T04:55:33;0.90;99.90
12967;DHT22;6548;49.996;8.238;2023-02-15T04:57:59;1.20;99.90
12967;DHT22;6548;49.996;8.238;2023-02-15T05:00:25;1.40;99.90
12967;DHT22;6548;49.996;8.238;2023-02-15T05:02:50;1.50;99.90
12967;DHT22;6548;49.996;8.238;2023-02-15T05:05:16;1.60;99.90
12967;DHT22;6548;49.996;8.238;2023-02-15T05:07:41;1.50;99.90
12967;DHT22;6548;49.996;8.238;2023-02-15T05:10:07;1.50;99.90
12967;DHT22;6548;49.996;8.238;2023-02-15T05:12:33;1.40;99.90
12967;DHT22;6548;49.996;8.238;2023-02-15T05:14:58;1.30;99.90
12967;DHT22;6548;49.996;8.238;2023-02-15T05:17:24;1.30;99.90
12967;DHT22;6548;49.996;8.238;2023-02-15T05:19:50;1.30;99.90
12967;DHT22;6548;49.996;8.238;2023-02-15T05:22:15;1.30;99.90
12967;DHT22;6548;49.996;8.238;2023-02-15T05:24:41;1.10;99.90
12967;DHT22;6548;49.996;8.238;2023-02-15T05:27:25;1.00;99.90
12967;DHT22;6548;49.996;8.238;2023-02-15T05:30:09;0.80;99.90
12967;DHT22;6548;49.996;8.238;2023-02-15T05:32:37;0.80;99.90
12967;DHT22;6548;49.996;8.238;2023-02-15T05:35:04;0.90;99.90
12967;DHT22;6548;49.996;8.238;2023-02-15T05:37:29;0.90;99.90
12967;DHT22;6548;49.996;8.238;2023-02-15T05:39:55;0.80;99.90
12967;DHT22;6548;49.996;8.238;2023-02-15T05:42:20;0.80;99.90
12967;DHT22;6548;49.996;8.238;2023-02-15T05:44:46;0.80;99.90
12967;DHT22;6548;49.996;8.238;2023-02-15T05:47:11;0.80;99.90
12967;DHT22;6548;49.996;8.238;2023-02-15T05:49:37;0.80;99.90
12967;DHT22;6548;49.996;8.238;2023-02-15T05:52:03;0.80;99.90
12967;DHT22;6548;49.996;8.238;2023-02-15T05:54:28;0.80;99.90
12967;DHT22;6548;49.996;8.238;2023-02-15T05:56:54;0.80;99.90
12967;DHT22;6548;49.996;8.238;2023-02-15T05:59:20;0.80;99.90
12967;DHT22;6548;49.996;8.238;2023-02-15T06:01:45;0.70;99.90
12967;DHT22;6548;49.996;8.238;2023-02-15T06:04:12;0.70;99.90
12967;DHT22;6548;49.996;8.238;2023-02-15T06:06:37;0.70;99.90
12967;DHT22;6548;49.996;8.238;2023-02-15T06:09:03;0.80;99.90
12967;DHT22;6548;49.996;8.238;2023-02-15T06:11:28;0.80;99.90
12967;DHT22;6548;49.996;8.238;2023-02-15T06:13:54;0.90;99.90
12967;DHT22;6548;49.996;8.238;2023-02-15T06:16:19;0.80;99.90
12967;DHT22;6548;49.996;8.238;2023-02-15T06:18:45;0.70;99.90
12967;DHT22;6548;49.996;8.238;2023-02-15T06:21:10;0.60;99.90
12967;DHT22;6548;49.996;8.238;2023-02-15T06:23:36;0.60;99.90
12967;DHT22;6548;49.996;8.238;2023-02-15T06:26:01;0.70;99.90
12967;DHT22;6548;49.996;8.238;2023-02-15T06:28:27;0.70;99.90
12967;DHT22;6548;49.996;8.238;2023-02-15T06:30:52;0.80;99.90
12967;DHT22;6548;49.996;8.238;2023-02-15T06:33:18;1.00;99.90
12967;DHT22;6548;49.996;8.238;2023-02-15T06:35:44;1.20;99.90
12967;DHT22;6548;49.996;8.238;2023-02-15T06:38:11;1.10;99.90
12967;DHT22;6548;49.996;8.238;2023-02-15T06:40:36;0.90;99.90
12967;DHT22;6548;49.996;8.238;2023-02-15T06:43:02;0.80;99.90
12967;DHT22;6548;49.996;8.238;2023-02-15T06:45:28;0.80;99.90
12967;DHT22;6548;49.996;8.238;2023-02-15T06:47:53;0.70;99.90
12967;DHT22;6548;49.996;8.238;2023-02-15T06:50:19;0.80;99.90
12967;DHT22;6548;49.996;8.238;2023-02-15T06:52:44;0.90;99.90
12967;DHT22;6548;49.996;8.238;2023-02-15T06:55:10;1.00;99.90
12967;DHT22;6548;49.996;8.238;2023-02-15T06:57:35;1.10;99.90
12967;DHT22;6548;49.996;8.238;2023-02-15T07:00:02;1.00;99.90
12967;DHT22;6548;49.996;8.238;2023-02-15T07:02:30;1.00;99.90
12967;DHT22;6548;49.996;8.238;2023-02-15T07:04:56;1.00;99.90
12967;DHT22;6548;49.996;8.238;2023-02-15T07:07:23;1.10;99.90
12967;DHT22;6548;49.996;8.238;2023-02-15T07:09:48;1.00;99.90
12967;DHT22;6548;49.996;8.238;2023-02-15T07:12:14;0.90;99.90
12967;DHT22;6548;49.996;8.238;2023-02-15T07:14:58;0.80;99.90
12967;DHT22;6548;49.996;8.238;2023-02-15T07:17:24;0.90;99.90
12967;DHT22;6548;49.996;8.238;2023-02-15T07:19:54;0.90;99.90
12967;DHT22;6548;49.996;8.238;2023-02-15T07:22:19;0.90;99.90
12967;DHT22;6548;49.996;8.238;2023-02-15T07:24:45;1.00;99.90
12967;DHT22;6548;49.996;8.238;2023-02-15T07:27:10;1.00;99.90
12967;DHT22;6548;49.996;8.238;2023-02-15T07:29:36;1.00;99.90
12967;DHT22;6548;49.996;8.238;2023-02-15T07:32:01;1.00;99.90
12967;DHT22;6548;49.996;8.238;2023-02-15T07:34:27;1.20;99.90
12967;DHT22;6548;49.996;8.238;2023-02-15T07:36:52;1.00;99.90
12967;DHT22;6548;49.996;8.238;2023-02-15T07:39:19;0.90;99.90
12967;DHT22;6548;49.996;8.238;2023-02-15T07:41:44;1.00;99.90
12967;DHT22;6548;49.996;8.238;2023-02-15T07:44:14;0.70;99.90
12967;DHT22;6548;49.996;8.238;2023-02-15T07:46:40;0.70;99.90
12967;DHT22;6548;49.996;8.238;2023-02-15T07:49:06;0.80;99.90
12967;DHT22;6548;49.996;8.238;2023-02-15T07:51:32;0.80;99.90
12967;DHT22;6548;49.996;8.238;2023-02-15T07:53:57;0.50;99.90
12967;DHT22;6548;49.996;8.238;2023-02-15T07:56:23;0.60;99.90
12967;DHT22;6548;49.996;8.238;2023-02-15T07:58:48;0.60;99.90
12967;DHT22;6548;49.996;8.238;2023-02-15T08:01:38;0.60;99.90
12967;DHT22;6548;49.996;8.238;2023-02-15T08:04:05;0.80;99.90
12967;DHT22;6548;49.996;8.238;2023-02-15T08:06:33;0.80;99.90
12967;DHT22;6548;49.996;8.238;2023-02-15T08:08:59;0.50;99.90
12967;DHT22;6548;49.996;8.238;2023-02-15T08:11:31;0.50;99.90
12967;DHT22;6548;49.996;8.238;2023-02-15T08:14:08;0.50;99.90
12967;DHT22;6548;49.996;8.238;2023-02-15T08:16:51;0.60;99.90
12967;DHT22;6548;49.996;8.238;2023-02-15T08:19:28;0.70;99.90
12967;DHT22;6548;49.996;8.238;2023-02-15T08:22:02;0.60;99.90
12967;DHT22;6548;49.996;8.238;2023-02-15T08:24:30;0.70;99.90
12967;DHT22;6548;49.996;8.238;2023-02-15T08:26:56;0.80;99.90
12967;DHT22;6548;49.996;8.238;2023-02-15T08:29:24;0.90;99.90
12967;DHT22;6548;49.996;8.238;2023-02-15T08:31:53;0.70;99.90
12967;DHT22;6548;49.996;8.238;2023-02-15T08:34:19;0.80;99.90
12967;DHT22;6548;49.996;8.238;2023-02-15T08:36:45;0.60;99.90
12967;DHT22;6548;49.996;8.238;2023-02-15T08:39:12;0.80;99.90
12967;DHT22;6548;49.996;8.238;2023-02-15T08:41:39;0.70;99.90
12967;DHT22;6548;49.996;8.238;2023-02-15T08:44:06;0.70;99.90
12967;DHT22;6548;49.996;8.238;2023-02-15T08:46:37;0.70;99.90
12967;DHT22;6548;49.996;8.238;2023-02-15T08:49:03;0.70;99.90
12967;DHT22;6548;49.996;8.238;2023-02-15T08:51:31;0.80;99.90
12967;DHT22;6548;49.996;8.238;2023-02-15T08:53:59;0.80;99.90
12967;DHT22;6548;49.996;8.238;2023-02-15T08:56:28;1.00;99.90
12967;DHT22;6548;49.996;8.238;2023-02-15T08:58:55;1.10;99.90
12967;DHT22;6548;49.996;8.238;2023-02-15T09:01:23;0.90;99.90
12967;DHT22;6548;49.996;8.238;2023-02-15T09:03:53;0.80;99.90
12967;DHT22;6548;49.996;8.238;2023-02-15T09:06:21;0.80;99.90
12967;DHT22;6548;49.996;8.238;2023-02-15T09:08:47;0.80;99.90
12967;DHT22;6548;49.996;8.238;2023-02-15T09:11:19;1.50;99.90
12967;DHT22;6548;49.996;8.238;2023-02-15T09:16:20;0.90;99.90
12967;DHT22;6548;49.996;8.238;2023-02-15T09:18:46;0.80;99.90
12967;DHT22;6548;49.996;8.238;2023-02-15T09:21:14;1.00;99.90
12967;DHT22;6548;49.996;8.238;2023-02-15T09:23:41;1.20;99.90
12967;DHT22;6548;49.996;8.238;2023-02-15T09:26:10;1.40;99.90
12967;DHT22;6548;49.996;8.238;2023-02-15T09:28:35;1.30;99.90
12967;DHT22;6548;49.996;8.238;2023-02-15T09:31:28;1.00;99.90
12967;DHT22;6548;49.996;8.238;2023-02-15T09:33:55;1.30;99.90
12967;DHT22;6548;49.996;8.238;2023-02-15T09:36:26;1.50;99.90
12967;DHT22;6548;49.996;8.238;2023-02-15T09:44:55;1.60;99.90
12967;DHT22;6548;49.996;8.238;2023-02-15T09:58:24;1.80;99.90
12967;DHT22;6548;49.996;8.238;2023-02-15T10:09:14;1.10;99.90
12967;DHT22;6548;49.996;8.238;2023-02-15T10:20:17;1.30;99.90
12967;DHT22;6548;49.996;8.238;2023-02-15T10:25:42;1.70;99.90
12967;DHT22;6548;49.996;8.238;2023-02-15T10:34:23;2.00;99.90
12967;DHT22;6548;49.996;8.238;2023-02-15T10:42:45;2.00;99.90
12967;DHT22;6548;49.996;8.238;2023-02-15T10:48:26;1.60;99.90
12967;DHT22;6548;49.996;8.238;2023-02-15T10:51:00;1.70;99.90
12967;DHT22;6548;49.996;8.238;2023-02-15T11:05:02;2.00;99.90
12967;DHT22;6548;49.996;8.238;2023-02-15T11:07:39;2.00;99.90
12967;DHT22;6548;49.996;8.238;2023-02-15T11:12:57;2.20;99.90
12967;DHT22;6548;49.996;8.238;2023-02-15T11:18:08;2.00;99.90
12967;DHT22;6548;49.996;8.238;2023-02-15T11:20:42;2.10;99.90
12967;DHT22;6548;49.996;8.238;2023-02-15T11:23:14;3.10;99.90
12967;DHT22;6548;49.996;8.238;2023-02-15T11:25:43;3.40;99.90
12967;DHT22;6548;49.996;8.238;2023-02-15T11:28:21;2.60;99.90
12967;DHT22;6548;49.996;8.238;2023-02-15T11:30:55;3.50;99.90
12967;DHT22;6548;49.996;8.238;2023-02-15T11:33:27;3.20;99.90
12967;DHT22;6548;49.996;8.238;2023-02-15T11:36:00;2.70;99.90
12967;DHT22;6548;49.996;8.238;2023-02-15T11:38:31;3.80;99.90
12967;DHT22;6548;49.996;8.238;2023-02-15T11:41:12;3.80;99.90
12967;DHT22;6548;49.996;8.238;2023-02-15T11:43:56;2.60;99.90
12967;DHT22;6548;49.996;8.238;2023-02-15T11:46:23;2.60;99.90
12967;DHT22;6548;49.996;8.238;2023-02-15T11:48:49;2.00;99.90
12967;DHT22;6548;49.996;8.238;2023-02-15T11:51:17;2.90;99.90
12967;DHT22;6548;49.996;8.238;2023-02-15T11:53:45;2.20;99.90
12967;DHT22;6548;49.996;8.238;2023-02-15T11:56:23;2.00;99.90
12967;DHT22;6548;49.996;8.238;2023-02-15T11:58:59;2.00;99.90
12967;DHT22;6548;49.996;8.238;2023-02-15T12:01:43;2.10;99.90
12967;DHT22;6548;49.996;8.238;2023-02-15T12:09:38;2.30;99.90
12967;DHT22;6548;49.996;8.238;2023-02-15T12:12:31;2.10;99.90
12967;DHT22;6548;49.996;8.238;2023-02-15T12:15:06;2.50;99.90
12967;DHT22;6548;49.996;8.238;2023-02-15T12:17:39;2.60;99.90
12967;DHT22;6548;49.996;8.238;2023-02-15T12:20:23;2.70;99.90
12967;DHT22;6548;49.996;8.238;2023-02-15T12:22:54;2.80;99.90
12967;DHT22;6548;49.996;8.238;2023-02-15T12:25:29;2.70;99.90
12967;DHT22;6548;49.996;8.238;2023-02-15T12:27:58;2.50;99.90
12967;DHT22;6548;49.996;8.238;2023-02-15T12:35:44;2.60;99.90
12967;DHT22;6548;49.996;8.238;2023-02-15T12:40:36;2.60;99.90
12967;DHT22;6548;49.996;8.238;2023-02-15T12:43:02;2.50;99.90
12967;DHT22;6548;49.996;8.238;2023-02-15T12:45:36;2.70;99.90
12967;DHT22;6548;49.996;8.238;2023-02-15T12:50:42;2.80;99.90
12967;DHT22;6548;49.996;8.238;2023-02-15T12:53:22;2.80;99.90
12967;DHT22;6548;49.996;8.238;2023-02-15T12:55:59;2.60;99.90
12967;DHT22;6548;49.996;8.238;2023-02-15T12:58:29;2.50;99.90
12967;DHT22;6548;49.996;8.238;2023-02-15T13:01:15;2.60;99.90
12967;DHT22;6548;49.996;8.238;2023-02-15T13:03:56;2.60;99.90
12967;DHT22;6548;49.996;8.238;2023-02-15T13:06:22;2.80;99.90
12967;DHT22;6548;49.996;8.238;2023-02-15T13:08:50;2.90;99.90
12967;DHT22;6548;49.996;8.238;2023-02-15T13:11:26;3.00;99.90
12967;DHT22;6548;49.996;8.238;2023-02-15T13:13:58;3.10;99.90
12967;DHT22;6548;49.996;8.238;2023-02-15T13:16:36;3.20;99.90
12967;DHT22;6548;49.996;8.238;2023-02-15T13:19:12;3.30;99.90
12967;DHT22;6548;49.996;8.238;2023-02-15T13:21:41;3.40;99.90
12967;DHT22;6548;49.996;8.238;2023-02-15T13:24:22;3.10;99.90
12967;DHT22;6548;49.996;8.238;2023-02-15T13:26:49;2.90;99.90
12967;DHT22;6548;49.996;8.238;2023-02-15T13:29:23;3.00;99.90
12967;DHT22;6548;49.996;8.238;2023-02-15T13:31:54;3.10;99.90
12967;DHT22;6548;49.996;8.238;2023-02-15T13:34:31;3.30;99.90
12967;DHT22;6548;49.996;8.238;2023-02-15T13:37:20;3.10;99.90
12967;DHT22;6548;49.996;8.238;2023-02-15T13:40:03;2.70;99.90
12967;DHT22;6548;49.996;8.238;2023-02-15T13:47:59;2.80;99.90
12967;DHT22;6548;49.996;8.238;2023-02-15T14:01:34;2.40;99.90
12967;DHT22;6548;49.996;8.238;2023-02-15T14:07:07;2.50;99.90
12967;DHT22;6548;49.996;8.238;2023-02-15T14:16:09;2.30;99.90
12967;DHT22;6548;49.996;8.238;2023-02-15T14:18:38;2.40;99.90
12967;DHT22;6548;49.996;8.238;2023-02-15T14:21:17;2.50;99.90
12967;DHT22;6548;49.996;8.238;2023-02-15T14:27:05;2.70;99.90
12967;DHT22;6548;49.996;8.238;2023-02-15T14:32:48;2.80;99.90
12967;DHT22;6548;49.996;8.238;2023-02-15T14:35:17;2.90;99.90
12967;DHT22;6548;49.996;8.238;2023-02-15T14:40:53;3.00;99.90
12967;DHT22;6548;49.996;8.238;2023-02-15T14:49:19;2.50;99.90
12967;DHT22;6548;49.996;8.238;2023-02-15T14:59:55;2.40;99.90
12967;DHT22;6548;49.996;8.238;2023-02-15T15:02:43;2.50;99.90
12967;DHT22;6548;49.996;8.238;2023-02-15T15:05:32;2.50;99.90
12967;DHT22;6548;49.996;8.238;2023-02-15T15:07:59;2.40;99.90
12967;DHT22;6548;49.996;8.238;2023-02-15T15:10:35;2.50;99.90
12967;DHT22;6548;49.996;8.238;2023-02-15T15:15:56;2.90;99.90
12967;DHT22;6548;49.996;8.238;2023-02-15T15:18:45;3.20;99.90
12967;DHT22;6548;49.996;8.238;2023-02-15T15:21:11;3.10;99.90
12967;DHT22;6548;49.996;8.238;2023-02-15T15:23:40;2.70;99.90
12967;DHT22;6548;49.996;8.238;2023-02-15T15:50:32;2.70;99.90
12967;DHT22;6548;49.996;8.238;2023-02-15T15:53:00;2.60;99.90
12967;DHT22;6548;49.996;8.238;2023-02-15T15:55:29;2.60;99.90
12967;DHT22;6548;49.996;8.238;2023-02-15T15:58:03;2.60;99.90
12967;DHT22;6548;49.996;8.238;2023-02-15T16:02:56;2.70;99.90
12967;DHT22;6548;49.996;8.238;2023-02-15T16:05:22;2.80;99.90
12967;DHT22;6548;49.996;8.238;2023-02-15T16:07:48;2.80;99.90
12967;DHT22;6548;49.996;8.238;2023-02-15T16:10:24;2.70;99.90
12967;DHT22;6548;49.996;8.238;2023-02-15T16:12:51;2.80;99.90
12967;DHT22;6548;49.996;8.238;2023-02-15T16:15:31;2.80;99.90
12967;DHT22;6548;49.996;8.238;2023-02-15T16:17:59;2.70;99.90
12967;DHT22;6548;49.996;8.238;2023-02-15T16:20:34;2.80;99.90
12967;DHT22;6548;49.996;8.238;2023-02-15T16:28:58;2.80;99.90
12967;DHT22;6548;49.996;8.238;2023-02-15T16:31:24;2.80;99.90
12967;DHT22;6548;49.996;8.238;2023-02-15T16:33:53;2.80;99.90
12967;DHT22;6548;49.996;8.238;2023-02-15T16:36:26;2.80;99.90
12967;DHT22;6548;49.996;8.238;2023-02-15T16:41:23;2.70;99.90
12967;DHT22;6548;49.996;8.238;2023-02-15T16:43:51;2.70;99.90
12967;DHT22;6548;49.996;8.238;2023-02-15T16:46:25;2.80;99.90
12967;DHT22;6548;49.996;8.238;2023-02-15T16:48:53;2.80;99.90
12967;DHT22;6548;49.996;8.238;2023-02-15T16:51:29;2.80;99.90
12967;DHT22;6548;49.996;8.238;2023-02-15T16:53:57;2.80;99.90
12967;DHT22;6548;49.996;8.238;2023-02-15T16:56:30;2.80;99.90
12967;DHT22;6548;49.996;8.238;2023-02-15T16:58:57;2.80;99.90
12967;DHT22;6548;49.996;8.238;2023-02-15T17:01:26;2.80;99.90
12967;DHT22;6548;49.996;8.238;2023-02-15T17:04:14;2.70;99.90
12967;DHT22;6548;49.996;8.238;2023-02-15T17:07:18;2.60;99.90
12967;DHT22;6548;49.996;8.238;2023-02-15T17:09:56;2.60;99.90
12967;DHT22;6548;49.996;8.238;2023-02-15T17:12:45;2.60;99.90
12967;DHT22;6548;49.996;8.238;2023-02-15T17:18:17;2.60;99.90
12967;DHT22;6548;49.996;8.238;2023-02-15T17:20:44;2.60;99.90
12967;DHT22;6548;49.996;8.238;2023-02-15T17:23:30;2.60;99.90
12967;DHT22;6548;49.996;8.238;2023-02-15T17:25:57;2.60;99.90
12967;DHT22;6548;49.996;8.238;2023-02-15T17:28:26;2.70;99.90
12967;DHT22;6548;49.996;8.238;2023-02-15T17:30:53;2.70;99.90
12967;DHT22;6548;49.996;8.238;2023-02-15T17:33:23;2.70;99.90
12967;DHT22;6548;49.996;8.238;2023-02-15T17:36:17;2.60;99.90
12967;DHT22;6548;49.996;8.238;2023-02-15T17:39:06;2.60;99.90
12967;DHT22;6548;49.996;8.238;2023-02-15T17:41:43;2.60;99.90
12967;DHT22;6548;49.996;8.238;2023-02-15T17:44:09;2.50;99.90
12967;DHT22;6548;49.996;8.238;2023-02-15T17:46:39;2.50;99.90
12967;DHT22;6548;49.996;8.238;2023-02-15T17:49:06;2.50;99.90
12967;DHT22;6548;49.996;8.238;2023-02-15T17:51:32;2.50;99.90
12967;DHT22;6548;49.996;8.238;2023-02-15T17:54:01;2.50;99.90
12967;DHT22;6548;49.996;8.238;2023-02-15T17:56:45;2.50;99.90
12967;DHT22;6548;49.996;8.238;2023-02-15T17:59:11;2.40;99.90
12967;DHT22;6548;49.996;8.238;2023-02-15T18:01:46;2.40;99.90
12967;DHT22;6548;49.996;8.238;2023-02-15T18:04:32;2.40;99.90
12967;DHT22;6548;49.996;8.238;2023-02-15T18:07:18;2.40;99.90
12967;DHT22;6548;49.996;8.238;2023-02-15T18:10:17;2.40;99.90
12967;DHT22;6548;49.996;8.238;2023-02-15T18:13:02;2.30;99.90
12967;DHT22;6548;49.996;8.238;2023-02-15T18:15:27;2.30;99.90
12967;DHT22;6548;49.996;8.238;2023-02-15T18:17:54;2.70;99.90
12967;DHT22;6548;49.996;8.238;2023-02-15T18:20:23;2.50;99.90
12967;DHT22;6548;49.996;8.238;2023-02-15T18:22:50;2.50;99.90
12967;DHT22;6548;49.996;8.238;2023-02-15T18:25:18;2.50;99.90
12967;DHT22;6548;49.996;8.238;2023-02-15T18:27:44;2.50;99.90
12967;DHT22;6548;49.996;8.238;2023-02-15T18:30:15;2.20;99.90
12967;DHT22;6548;49.996;8.238;2023-02-15T18:32:41;2.20;99.90
12967;DHT22;6548;49.996;8.238;2023-02-15T18:35:16;2.10;99.90
12967;DHT22;6548;49.996;8.238;2023-02-15T18:37:43;1.90;99.90
12967;DHT22;6548;49.996;8.238;2023-02-15T18:40:18;2.40;99.90
12967;DHT22;6548;49.996;8.238;2023-02-15T18:42:44;2.10;99.90
12967;DHT22;6548;49.996;8.238;2023-02-15T18:45:20;1.90;99.90
12967;DHT22;6548;49.996;8.238;2023-02-15T18:47:48;1.80;99.90
12967;DHT22;6548;49.996;8.238;2023-02-15T18:50:15;1.80;99.90
12967;DHT22;6548;49.996;8.238;2023-02-15T18:52:42;1.80;99.90
12967;DHT22;6548;49.996;8.238;2023-02-15T18:55:22;1.80;99.90
12967;DHT22;6548;49.996;8.238;2023-02-15T18:57:50;1.70;99.90
12967;DHT22;6548;49.996;8.238;2023-02-15T19:00:17;1.70;99.90
12967;DHT22;6548;49.996;8.238;2023-02-15T19:02:43;1.80;99.90
12967;DHT22;6548;49.996;8.238;2023-02-15T19:05:09;1.80;99.90
12967;DHT22;6548;49.996;8.238;2023-02-15T19:07:35;1.80;99.90
12967;DHT22;6548;49.996;8.238;2023-02-15T19:10:04;1.90;99.90
12967;DHT22;6548;49.996;8.238;2023-02-15T19:12:30;2.00;99.90
12967;DHT22;6548;49.996;8.238;2023-02-15T19:14:55;2.10;99.90
12967;DHT22;6548;49.996;8.238;2023-02-15T19:17:22;1.80;99.90
12967;DHT22;6548;49.996;8.238;2023-02-15T19:19:49;1.60;99.90
12967;DHT22;6548;49.996;8.238;2023-02-15T19:22:35;1.60;99.90
12967;DHT22;6548;49.996;8.238;2023-02-15T19:25:02;1.70;99.90
12967;DHT22;6548;49.996;8.238;2023-02-15T19:27:34;1.80;99.90
12967;DHT22;6548;49.996;8.238;2023-02-15T19:30:02;1.80;99.90
12967;DHT22;6548;49.996;8.238;2023-02-15T19:32:28;1.80;99.90
12967;DHT22;6548;49.996;8.238;2023-02-15T19:34:55;1.80;99.90
12967;DHT22;6548;49.996;8.238;2023-02-15T19:37:36;1.80;99.90
12967;DHT22;6548;49.996;8.238;2023-02-15T19:40:03;1.90;99.90